Startpagina
METAR-TAF:

METAR-TAF

Vliegvelden :

Hongkong, China

Luchthaven Hongkong

breedte: 22-19N, lengte: 113-55E, hoogte: 9 m

Actueel weer

Dit bericht is 33 minuten geleden gemaakt, om 06:00 UTC
Wind 6 kt uit het noordoosten
Temperatuur 20°C
Vochtigheid 73%
Druk 1016 hPa
Zicht 10 km of meer
Weinig wolken op 1200 ft
Verspreide wolken op 2500 ft
Gebroken wolken op 4500 ft

METAR: VHHH 190600Z 04006KT 9999 FEW012 SCT025 BKN045 20/15 Q1016 NOSIG

Tijdstip: 14:33 (06:33 UTC)

Verwachting

Dit bericht is 1 uur en het 33 minuten geleden gemaakt, om 05:00 UTC
Verwachting geldig van 19 om 06 UTC tot 20 om 12 UTC
Wind 10 kt uit het noordoosten
Zicht: 8000 m
Weinig wolken op 1000 ft
Verspreide wolken op 2000 ft
Gebroken wolken op 4500 ft

TAF: VHHH 190500Z 1906/2012 05010KT 8000 FEW010 SCT020 BKN045 TX20/1906Z TX20/2006Z TN17/1923Z

Waarnemingen en weersverwachtingen van meer dan 4000 vliegvelden (METAR en TAF).

De beschikbare stations zijn de gele en rode punten op de kaart.

Ga met uw muis naar het station om de naam te zien.

Klik dan om waarnemingen en weersverwachtingen te zien.

kaart wijzigen: klik op de groene knoppen met een zwart kruis om in te zoomen, op de groene knop met een streepje om uit te zoomen of op de groene pijlen voor aangrenzende kaarten.


METAR-TAF: